sensor_id;sensor_type;location;lat;lon;timestamp;P1;durP1;ratioP1;P2;durP2;ratioP2
76379;SDS011;65201;21.060;105.826;2022-11-20T00:01:48;15.00;;;11.38;;
76379;SDS011;65201;21.060;105.826;2022-11-20T00:04:14;17.55;;;11.82;;
76379;SDS011;65201;21.060;105.826;2022-11-20T00:06:40;16.70;;;11.53;;
76379;SDS011;65201;21.060;105.826;2022-11-20T00:09:06;17.02;;;12.30;;
76379;SDS011;65201;21.060;105.826;2022-11-20T00:11:35;17.85;;;11.95;;
76379;SDS011;65201;21.060;105.826;2022-11-20T00:14:01;17.83;;;11.98;;
76379;SDS011;65201;21.060;105.826;2022-11-20T00:16:28;16.02;;;12.35;;
76379;SDS011;65201;21.060;105.826;2022-11-20T00:18:54;18.27;;;11.87;;
76379;SDS011;65201;21.060;105.826;2022-11-20T00:21:24;16.20;;;11.70;;
76379;SDS011;65201;21.060;105.826;2022-11-20T00:23:50;16.23;;;12.05;;
76379;SDS011;65201;21.060;105.826;2022-11-20T00:26:18;17.00;;;12.50;;
76379;SDS011;65201;21.060;105.826;2022-11-20T00:28:44;16.77;;;12.13;;
76379;SDS011;65201;21.060;105.826;2022-11-20T00:31:15;14.00;;;11.67;;
76379;SDS011;65201;21.060;105.826;2022-11-20T00:33:41;17.63;;;11.93;;
76379;SDS011;65201;21.060;105.826;2022-11-20T00:36:09;16.52;;;11.68;;
76379;SDS011;65201;21.060;105.826;2022-11-20T00:38:35;17.63;;;12.23;;
76379;SDS011;65201;21.060;105.826;2022-11-20T00:41:05;16.77;;;11.55;;
76379;SDS011;65201;21.060;105.826;2022-11-20T00:43:32;16.17;;;11.50;;
76379;SDS011;65201;21.060;105.826;2022-11-20T00:45:58;16.40;;;11.65;;
76379;SDS011;65201;21.060;105.826;2022-11-20T00:48:24;15.13;;;11.57;;
76379;SDS011;65201;21.060;105.826;2022-11-20T00:50:51;17.90;;;11.73;;
76379;SDS011;65201;21.060;105.826;2022-11-20T00:53:17;15.85;;;11.85;;
76379;SDS011;65201;21.060;105.826;2022-11-20T00:55:43;16.37;;;11.17;;
76379;SDS011;65201;21.060;105.826;2022-11-20T00:58:17;14.65;;;11.23;;
76379;SDS011;65201;21.060;105.826;2022-11-20T01:00:43;17.25;;;12.10;;
76379;SDS011;65201;21.060;105.826;2022-11-20T01:03:09;18.15;;;12.07;;
76379;SDS011;65201;21.060;105.826;2022-11-20T01:05:35;16.60;;;11.48;;
76379;SDS011;65201;21.060;105.826;2022-11-20T01:08:01;18.67;;;12.60;;
76379;SDS011;65201;21.060;105.826;2022-11-20T01:10:28;15.30;;;11.48;;
76379;SDS011;65201;21.060;105.826;2022-11-20T01:12:54;16.33;;;11.07;;
76379;SDS011;65201;21.060;105.826;2022-11-20T01:15:38;16.77;;;12.20;;
76379;SDS011;65201;21.060;105.826;2022-11-20T01:18:04;18.73;;;12.30;;
76379;SDS011;65201;21.060;105.826;2022-11-20T01:20:34;16.97;;;12.10;;
76379;SDS011;65201;21.060;105.826;2022-11-20T01:23:02;16.67;;;11.80;;
76379;SDS011;65201;21.060;105.826;2022-11-20T01:25:28;15.15;;;11.77;;
76379;SDS011;65201;21.060;105.826;2022-11-20T01:27:55;18.88;;;12.40;;
76379;SDS011;65201;21.060;105.826;2022-11-20T01:30:21;17.30;;;12.10;;
76379;SDS011;65201;21.060;105.826;2022-11-20T01:32:47;16.43;;;11.93;;
76379;SDS011;65201;21.060;105.826;2022-11-20T01:35:13;18.63;;;12.52;;
76379;SDS011;65201;21.060;105.826;2022-11-20T01:37:39;16.92;;;12.30;;
76379;SDS011;65201;21.060;105.826;2022-11-20T01:40:05;19.48;;;11.80;;
76379;SDS011;65201;21.060;105.826;2022-11-20T01:42:31;19.00;;;12.38;;
76379;SDS011;65201;21.060;105.826;2022-11-20T01:48:00;25.58;;;13.02;;
76379;SDS011;65201;21.060;105.826;2022-11-20T01:50:26;21.38;;;12.32;;
76379;SDS011;65201;21.060;105.826;2022-11-20T01:52:58;23.95;;;12.65;;
76379;SDS011;65201;21.060;105.826;2022-11-20T01:55:26;19.30;;;12.75;;
76379;SDS011;65201;21.060;105.826;2022-11-20T01:57:53;23.93;;;12.80;;
76379;SDS011;65201;21.060;105.826;2022-11-20T02:00:20;18.88;;;13.07;;
76379;SDS011;65201;21.060;105.826;2022-11-20T02:02:57;18.60;;;12.90;;
76379;SDS011;65201;21.060;105.826;2022-11-20T02:07:50;22.70;;;13.18;;
76379;SDS011;65201;21.060;105.826;2022-11-20T02:10:16;24.57;;;12.73;;
76379;SDS011;65201;21.060;105.826;2022-11-20T02:12:42;22.30;;;12.95;;
76379;SDS011;65201;21.060;105.826;2022-11-20T02:15:26;22.27;;;12.55;;
76379;SDS011;65201;21.060;105.826;2022-11-20T02:17:53;19.60;;;13.00;;
76379;SDS011;65201;21.060;105.826;2022-11-20T02:20:19;23.88;;;12.73;;
76379;SDS011;65201;21.060;105.826;2022-11-20T02:22:48;19.30;;;12.53;;
76379;SDS011;65201;21.060;105.826;2022-11-20T02:25:16;24.55;;;12.68;;
76379;SDS011;65201;21.060;105.826;2022-11-20T02:27:43;19.15;;;12.57;;
76379;SDS011;65201;21.060;105.826;2022-11-20T02:30:09;20.95;;;12.30;;
76379;SDS011;65201;21.060;105.826;2022-11-20T02:32:36;26.27;;;13.13;;
76379;SDS011;65201;21.060;105.826;2022-11-20T02:35:10;21.10;;;12.67;;
76379;SDS011;65201;21.060;105.826;2022-11-20T02:37:54;24.63;;;12.88;;
76379;SDS011;65201;21.060;105.826;2022-11-20T02:40:21;27.58;;;13.13;;
76379;SDS011;65201;21.060;105.826;2022-11-20T02:42:51;20.40;;;12.50;;
76379;SDS011;65201;21.060;105.826;2022-11-20T02:45:17;20.70;;;13.10;;
76379;SDS011;65201;21.060;105.826;2022-11-20T02:47:43;25.17;;;12.47;;
76379;SDS011;65201;21.060;105.826;2022-11-20T02:50:10;19.73;;;12.32;;
76379;SDS011;65201;21.060;105.826;2022-11-20T02:52:36;21.40;;;12.98;;
76379;SDS011;65201;21.060;105.826;2022-11-20T02:55:02;25.27;;;13.02;;
76379;SDS011;65201;21.060;105.826;2022-11-20T02:57:28;18.88;;;12.57;;
76379;SDS011;65201;21.060;105.826;2022-11-20T02:59:54;23.73;;;13.20;;
76379;SDS011;65201;21.060;105.826;2022-11-20T03:02:21;25.73;;;13.00;;
76379;SDS011;65201;21.060;105.826;2022-11-20T03:04:47;22.05;;;13.20;;
76379;SDS011;65201;21.060;105.826;2022-11-20T03:07:13;20.75;;;12.63;;
76379;SDS011;65201;21.060;105.826;2022-11-20T03:09:39;21.85;;;12.57;;
76379;SDS011;65201;21.060;105.826;2022-11-20T03:12:06;22.93;;;13.00;;
76379;SDS011;65201;21.060;105.826;2022-11-20T03:14:32;18.45;;;12.40;;
76379;SDS011;65201;21.060;105.826;2022-11-20T03:16:58;20.27;;;12.15;;
76379;SDS011;65201;21.060;105.826;2022-11-20T03:19:24;21.20;;;12.68;;
76379;SDS011;65201;21.060;105.826;2022-11-20T03:21:50;19.92;;;12.48;;
76379;SDS011;65201;21.060;105.826;2022-11-20T03:24:17;19.13;;;12.20;;
76379;SDS011;65201;21.060;105.826;2022-11-20T03:26:43;21.65;;;13.00;;
76379;SDS011;65201;21.060;105.826;2022-11-20T03:29:09;24.23;;;12.60;;
76379;SDS011;65201;21.060;105.826;2022-11-20T03:31:36;22.35;;;13.02;;
76379;SDS011;65201;21.060;105.826;2022-11-20T03:34:03;19.40;;;12.10;;
76379;SDS011;65201;21.060;105.826;2022-11-20T03:36:29;20.13;;;12.37;;
76379;SDS011;65201;21.060;105.826;2022-11-20T03:38:56;19.90;;;12.43;;
76379;SDS011;65201;21.060;105.826;2022-11-20T03:41:23;20.25;;;12.77;;
76379;SDS011;65201;21.060;105.826;2022-11-20T03:46:15;23.90;;;13.40;;
76379;SDS011;65201;21.060;105.826;2022-11-20T03:48:42;22.43;;;12.77;;
76379;SDS011;65201;21.060;105.826;2022-11-20T03:51:11;21.35;;;12.40;;
76379;SDS011;65201;21.060;105.826;2022-11-20T03:53:39;16.98;;;12.30;;
76379;SDS011;65201;21.060;105.826;2022-11-20T03:56:05;18.17;;;12.02;;
76379;SDS011;65201;21.060;105.826;2022-11-20T03:58:32;21.50;;;12.40;;
76379;SDS011;65201;21.060;105.826;2022-11-20T04:01:03;18.03;;;12.00;;
76379;SDS011;65201;21.060;105.826;2022-11-20T04:03:29;24.73;;;12.75;;
76379;SDS011;65201;21.060;105.826;2022-11-20T04:06:00;18.30;;;11.73;;
76379;SDS011;65201;21.060;105.826;2022-11-20T04:08:27;17.75;;;11.75;;
76379;SDS011;65201;21.060;105.826;2022-11-20T04:10:53;19.38;;;12.30;;
76379;SDS011;65201;21.060;105.826;2022-11-20T04:13:19;16.77;;;11.83;;
76379;SDS011;65201;21.060;105.826;2022-11-20T04:15:45;20.42;;;12.68;;
76379;SDS011;65201;21.060;105.826;2022-11-20T04:18:11;18.65;;;12.48;;
76379;SDS011;65201;21.060;105.826;2022-11-20T04:20:37;20.65;;;11.77;;
76379;SDS011;65201;21.060;105.826;2022-11-20T04:23:04;21.67;;;11.95;;
76379;SDS011;65201;21.060;105.826;2022-11-20T04:25:30;20.17;;;11.63;;
76379;SDS011;65201;21.060;105.826;2022-11-20T04:27:56;17.77;;;11.43;;
76379;SDS011;65201;21.060;105.826;2022-11-20T04:30:22;18.60;;;12.02;;
76379;SDS011;65201;21.060;105.826;2022-11-20T04:32:48;18.52;;;12.15;;
76379;SDS011;65201;21.060;105.826;2022-11-20T04:35:14;16.08;;;11.88;;
76379;SDS011;65201;21.060;105.826;2022-11-20T04:37:40;19.60;;;12.33;;
76379;SDS011;65201;21.060;105.826;2022-11-20T04:40:06;18.98;;;11.77;;
76379;SDS011;65201;21.060;105.826;2022-11-20T04:42:32;18.95;;;11.75;;
76379;SDS011;65201;21.060;105.826;2022-11-20T04:44:58;17.25;;;11.60;;
76379;SDS011;65201;21.060;105.826;2022-11-20T04:47:25;16.85;;;11.60;;
76379;SDS011;65201;21.060;105.826;2022-11-20T04:49:51;15.53;;;11.40;;
76379;SDS011;65201;21.060;105.826;2022-11-20T04:52:17;20.98;;;12.00;;
76379;SDS011;65201;21.060;105.826;2022-11-20T04:54:43;19.50;;;11.95;;
76379;SDS011;65201;21.060;105.826;2022-11-20T04:57:09;18.60;;;11.93;;
76379;SDS011;65201;21.060;105.826;2022-11-20T04:59:35;20.48;;;12.82;;
76379;SDS011;65201;21.060;105.826;2022-11-20T05:02:01;21.80;;;12.90;;
76379;SDS011;65201;21.060;105.826;2022-11-20T05:04:27;21.63;;;12.75;;
76379;SDS011;65201;21.060;105.826;2022-11-20T05:06:53;20.65;;;12.93;;
76379;SDS011;65201;21.060;105.826;2022-11-20T05:09:19;19.95;;;12.80;;
76379;SDS011;65201;21.060;105.826;2022-11-20T05:11:45;22.67;;;12.45;;
76379;SDS011;65201;21.060;105.826;2022-11-20T05:14:11;27.93;;;14.77;;
76379;SDS011;65201;21.060;105.826;2022-11-20T05:16:37;21.25;;;14.13;;
76379;SDS011;65201;21.060;105.826;2022-11-20T05:19:04;22.83;;;13.57;;
76379;SDS011;65201;21.060;105.826;2022-11-20T05:21:30;23.75;;;13.75;;
76379;SDS011;65201;21.060;105.826;2022-11-20T05:23:57;21.08;;;13.32;;
76379;SDS011;65201;21.060;105.826;2022-11-20T05:26:23;20.20;;;13.70;;
76379;SDS011;65201;21.060;105.826;2022-11-20T05:28:50;21.80;;;13.93;;
76379;SDS011;65201;21.060;105.826;2022-11-20T05:31:20;22.00;;;14.02;;
76379;SDS011;65201;21.060;105.826;2022-11-20T05:33:46;23.25;;;14.10;;
76379;SDS011;65201;21.060;105.826;2022-11-20T05:36:13;23.45;;;14.35;;
76379;SDS011;65201;21.060;105.826;2022-11-20T05:38:39;23.33;;;12.97;;
76379;SDS011;65201;21.060;105.826;2022-11-20T05:41:07;21.35;;;13.80;;
76379;SDS011;65201;21.060;105.826;2022-11-20T05:43:33;22.25;;;12.98;;
76379;SDS011;65201;21.060;105.826;2022-11-20T05:46:00;25.13;;;13.80;;
76379;SDS011;65201;21.060;105.826;2022-11-20T05:48:26;31.48;;;13.65;;
76379;SDS011;65201;21.060;105.826;2022-11-20T05:50:52;21.23;;;13.57;;
76379;SDS011;65201;21.060;105.826;2022-11-20T05:53:19;21.92;;;13.15;;
76379;SDS011;65201;21.060;105.826;2022-11-20T05:55:45;23.63;;;13.60;;
76379;SDS011;65201;21.060;105.826;2022-11-20T05:58:11;19.77;;;13.27;;
76379;SDS011;65201;21.060;105.826;2022-11-20T06:00:37;26.48;;;14.00;;
76379;SDS011;65201;21.060;105.826;2022-11-20T06:03:03;25.37;;;13.90;;
76379;SDS011;65201;21.060;105.826;2022-11-20T06:05:29;22.70;;;13.45;;
76379;SDS011;65201;21.060;105.826;2022-11-20T06:07:55;22.48;;;13.23;;
76379;SDS011;65201;21.060;105.826;2022-11-20T06:10:21;23.52;;;13.45;;
76379;SDS011;65201;21.060;105.826;2022-11-20T06:12:47;27.88;;;13.43;;
76379;SDS011;65201;21.060;105.826;2022-11-20T06:15:13;21.00;;;13.33;;
76379;SDS011;65201;21.060;105.826;2022-11-20T06:17:39;19.05;;;13.45;;
76379;SDS011;65201;21.060;105.826;2022-11-20T06:20:05;22.92;;;13.15;;
76379;SDS011;65201;21.060;105.826;2022-11-20T06:22:32;23.80;;;14.00;;
76379;SDS011;65201;21.060;105.826;2022-11-20T06:24:58;21.83;;;12.82;;
76379;SDS011;65201;21.060;105.826;2022-11-20T06:27:24;25.03;;;13.40;;
76379;SDS011;65201;21.060;105.826;2022-11-20T06:29:50;23.95;;;13.20;;
76379;SDS011;65201;21.060;105.826;2022-11-20T06:32:16;18.90;;;13.15;;
76379;SDS011;65201;21.060;105.826;2022-11-20T06:34:42;19.60;;;12.82;;
76379;SDS011;65201;21.060;105.826;2022-11-20T06:37:08;20.67;;;12.88;;
76379;SDS011;65201;21.060;105.826;2022-11-20T06:39:34;18.53;;;12.70;;
76379;SDS011;65201;21.060;105.826;2022-11-20T06:42:01;21.80;;;12.63;;
76379;SDS011;65201;21.060;105.826;2022-11-20T06:44:27;19.65;;;12.45;;
76379;SDS011;65201;21.060;105.826;2022-11-20T06:46:53;24.67;;;12.77;;
76379;SDS011;65201;21.060;105.826;2022-11-20T06:49:19;17.17;;;12.55;;
76379;SDS011;65201;21.060;105.826;2022-11-20T06:51:45;20.50;;;12.80;;
76379;SDS011;65201;21.060;105.826;2022-11-20T06:54:11;20.85;;;13.27;;
76379;SDS011;65201;21.060;105.826;2022-11-20T06:56:37;22.00;;;13.18;;
76379;SDS011;65201;21.060;105.826;2022-11-20T06:59:04;18.40;;;12.93;;
76379;SDS011;65201;21.060;105.826;2022-11-20T07:01:30;18.15;;;13.00;;
76379;SDS011;65201;21.060;105.826;2022-11-20T07:03:56;19.97;;;13.27;;
76379;SDS011;65201;21.060;105.826;2022-11-20T07:06:22;18.33;;;12.52;;
76379;SDS011;65201;21.060;105.826;2022-11-20T07:08:50;22.35;;;12.23;;
76379;SDS011;65201;21.060;105.826;2022-11-20T07:11:16;18.95;;;12.32;;
76379;SDS011;65201;21.060;105.826;2022-11-20T07:13:42;16.23;;;12.25;;
76379;SDS011;65201;21.060;105.826;2022-11-20T07:16:08;19.60;;;12.90;;
76379;SDS011;65201;21.060;105.826;2022-11-20T07:18:35;20.35;;;12.35;;
76379;SDS011;65201;21.060;105.826;2022-11-20T07:21:02;19.80;;;12.70;;
76379;SDS011;65201;21.060;105.826;2022-11-20T07:23:28;17.50;;;12.25;;
76379;SDS011;65201;21.060;105.826;2022-11-20T07:25:54;17.20;;;12.50;;
76379;SDS011;65201;21.060;105.826;2022-11-20T07:28:20;20.07;;;12.63;;
76379;SDS011;65201;21.060;105.826;2022-11-20T07:30:50;17.75;;;12.63;;
76379;SDS011;65201;21.060;105.826;2022-11-20T07:33:16;20.48;;;12.40;;
76379;SDS011;65201;21.060;105.826;2022-11-20T07:35:42;17.02;;;11.38;;
76379;SDS011;65201;21.060;105.826;2022-11-20T07:38:08;21.25;;;12.90;;
76379;SDS011;65201;21.060;105.826;2022-11-20T07:40:34;18.17;;;12.53;;
76379;SDS011;65201;21.060;105.826;2022-11-20T07:43:00;16.35;;;11.65;;
76379;SDS011;65201;21.060;105.826;2022-11-20T07:45:26;19.08;;;12.00;;
76379;SDS011;65201;21.060;105.826;2022-11-20T07:47:52;17.20;;;12.18;;
76379;SDS011;65201;21.060;105.826;2022-11-20T07:50:19;18.13;;;12.57;;
76379;SDS011;65201;21.060;105.826;2022-11-20T07:52:45;19.27;;;12.43;;
76379;SDS011;65201;21.060;105.826;2022-11-20T07:55:11;17.02;;;11.60;;
76379;SDS011;65201;21.060;105.826;2022-11-20T07:57:38;16.73;;;11.65;;
76379;SDS011;65201;21.060;105.826;2022-11-20T08:00:04;16.48;;;11.80;;
76379;SDS011;65201;21.060;105.826;2022-11-20T08:02:31;15.38;;;11.38;;
76379;SDS011;65201;21.060;105.826;2022-11-20T08:04:57;16.43;;;11.70;;
76379;SDS011;65201;21.060;105.826;2022-11-20T08:07:23;15.50;;;11.75;;
76379;SDS011;65201;21.060;105.826;2022-11-20T08:09:49;15.68;;;11.73;;
76379;SDS011;65201;21.060;105.826;2022-11-20T08:12:16;18.10;;;11.40;;
76379;SDS011;65201;21.060;105.826;2022-11-20T08:15:01;16.10;;;11.43;;
76379;SDS011;65201;21.060;105.826;2022-11-20T08:17:27;17.37;;;11.90;;
76379;SDS011;65201;21.060;105.826;2022-11-20T08:19:53;16.27;;;11.48;;
76379;SDS011;65201;21.060;105.826;2022-11-20T08:22:19;14.98;;;11.60;;
76379;SDS011;65201;21.060;105.826;2022-11-20T08:24:46;15.65;;;11.82;;
76379;SDS011;65201;21.060;105.826;2022-11-20T08:27:12;17.65;;;12.45;;
76379;SDS011;65201;21.060;105.826;2022-11-20T08:29:38;18.27;;;12.43;;
76379;SDS011;65201;21.060;105.826;2022-11-20T08:32:04;18.90;;;12.23;;
76379;SDS011;65201;21.060;105.826;2022-11-20T08:34:30;16.85;;;12.13;;
76379;SDS011;65201;21.060;105.826;2022-11-20T08:36:56;16.15;;;11.90;;
76379;SDS011;65201;21.060;105.826;2022-11-20T08:39:22;15.32;;;12.10;;
76379;SDS011;65201;21.060;105.826;2022-11-20T08:41:49;15.60;;;11.57;;
76379;SDS011;65201;21.060;105.826;2022-11-20T08:44:15;17.65;;;11.27;;
76379;SDS011;65201;21.060;105.826;2022-11-20T08:46:41;16.13;;;11.68;;
76379;SDS011;65201;21.060;105.826;2022-11-20T08:49:09;16.95;;;11.57;;
76379;SDS011;65201;21.060;105.826;2022-11-20T08:51:36;17.92;;;11.88;;
76379;SDS011;65201;21.060;105.826;2022-11-20T08:54:03;18.53;;;12.00;;
76379;SDS011;65201;21.060;105.826;2022-11-20T08:56:29;17.75;;;11.40;;
76379;SDS011;65201;21.060;105.826;2022-11-20T08:58:55;17.65;;;11.68;;
76379;SDS011;65201;21.060;105.826;2022-11-20T09:01:22;17.65;;;12.00;;
76379;SDS011;65201;21.060;105.826;2022-11-20T09:03:49;16.88;;;12.35;;
76379;SDS011;65201;21.060;105.826;2022-11-20T09:06:15;16.40;;;11.73;;
76379;SDS011;65201;21.060;105.826;2022-11-20T09:08:41;17.73;;;12.32;;
76379;SDS011;65201;21.060;105.826;2022-11-20T09:11:07;14.60;;;11.45;;
76379;SDS011;65201;21.060;105.826;2022-11-20T09:13:34;16.85;;;11.60;;
76379;SDS011;65201;21.060;105.826;2022-11-20T09:16:05;17.05;;;12.20;;
76379;SDS011;65201;21.060;105.826;2022-11-20T09:18:32;17.17;;;12.13;;
76379;SDS011;65201;21.060;105.826;2022-11-20T09:20:58;16.23;;;11.98;;
76379;SDS011;65201;21.060;105.826;2022-11-20T09:23:25;15.27;;;11.80;;
76379;SDS011;65201;21.060;105.826;2022-11-20T09:25:51;14.90;;;12.18;;
76379;SDS011;65201;21.060;105.826;2022-11-20T09:28:18;15.75;;;11.82;;
76379;SDS011;65201;21.060;105.826;2022-11-20T09:30:44;16.17;;;12.00;;
76379;SDS011;65201;21.060;105.826;2022-11-20T09:33:10;15.77;;;12.02;;
76379;SDS011;65201;21.060;105.826;2022-11-20T09:35:36;15.38;;;11.48;;
76379;SDS011;65201;21.060;105.826;2022-11-20T09:38:06;16.17;;;11.48;;
76379;SDS011;65201;21.060;105.826;2022-11-20T09:40:32;18.02;;;12.05;;
76379;SDS011;65201;21.060;105.826;2022-11-20T09:51:01;15.20;;;11.88;;
76379;SDS011;65201;21.060;105.826;2022-11-20T09:56:06;14.23;;;11.50;;
76379;SDS011;65201;21.060;105.826;2022-11-20T09:58:57;15.10;;;11.07;;
76379;SDS011;65201;21.060;105.826;2022-11-20T10:01:21;14.68;;;11.55;;
76379;SDS011;65201;21.060;105.826;2022-11-20T10:06:34;14.55;;;11.52;;
76379;SDS011;65201;21.060;105.826;2022-11-20T10:11:43;15.33;;;10.83;;
76379;SDS011;65201;21.060;105.826;2022-11-20T10:26:52;15.55;;;12.05;;
76379;SDS011;65201;21.060;105.826;2022-11-20T10:29:26;14.18;;;11.25;;
76379;SDS011;65201;21.060;105.826;2022-11-20T10:31:56;14.80;;;12.20;;
76379;SDS011;65201;21.060;105.826;2022-11-20T10:37:14;27.53;;;15.30;;
76379;SDS011;65201;21.060;105.826;2022-11-20T10:39:51;37.08;;;16.67;;
76379;SDS011;65201;21.060;105.826;2022-11-20T10:42:26;46.28;;;18.02;;
76379;SDS011;65201;21.060;105.826;2022-11-20T10:44:58;30.73;;;17.05;;
76379;SDS011;65201;21.060;105.826;2022-11-20T10:47:30;35.45;;;18.20;;
76379;SDS011;65201;21.060;105.826;2022-11-20T10:49:57;38.73;;;19.23;;
76379;SDS011;65201;21.060;105.826;2022-11-20T11:00:11;45.38;;;19.05;;
76379;SDS011;65201;21.060;105.826;2022-11-20T11:02:48;37.10;;;20.60;;
76379;SDS011;65201;21.060;105.826;2022-11-20T11:08:32;113.70;;;50.28;;
76379;SDS011;65201;21.060;105.826;2022-11-20T11:11:02;105.78;;;50.15;;
76379;SDS011;65201;21.060;105.826;2022-11-20T11:13:32;85.68;;;44.35;;
76379;SDS011;65201;21.060;105.826;2022-11-20T11:15:58;92.27;;;43.00;;
76379;SDS011;65201;21.060;105.826;2022-11-20T11:20:51;83.22;;;40.85;;
76379;SDS011;65201;21.060;105.826;2022-11-20T11:26:04;73.47;;;36.25;;
76379;SDS011;65201;21.060;105.826;2022-11-20T11:28:30;69.60;;;34.03;;
76379;SDS011;65201;21.060;105.826;2022-11-20T11:30:57;72.50;;;34.22;;
76379;SDS011;65201;21.060;105.826;2022-11-20T11:33:24;65.85;;;34.30;;
76379;SDS011;65201;21.060;105.826;2022-11-20T11:35:55;68.97;;;33.08;;
76379;SDS011;65201;21.060;105.826;2022-11-20T11:38:38;60.90;;;32.67;;
76379;SDS011;65201;21.060;105.826;2022-11-20T11:41:05;60.47;;;31.43;;
76379;SDS011;65201;21.060;105.826;2022-11-20T11:43:35;59.10;;;29.42;;
76379;SDS011;65201;21.060;105.826;2022-11-20T11:49:11;54.13;;;28.50;;
76379;SDS011;65201;21.060;105.826;2022-11-20T11:54:10;54.77;;;28.83;;
76379;SDS011;65201;21.060;105.826;2022-11-20T11:56:40;59.63;;;27.95;;
76379;SDS011;65201;21.060;105.826;2022-11-20T11:59:06;50.15;;;29.38;;
76379;SDS011;65201;21.060;105.826;2022-11-20T12:01:47;55.97;;;28.70;;
76379;SDS011;65201;21.060;105.826;2022-11-20T12:07:03;62.57;;;29.20;;
76379;SDS011;65201;21.060;105.826;2022-11-20T12:12:55;68.10;;;28.50;;
76379;SDS011;65201;21.060;105.826;2022-11-20T12:15:29;63.45;;;29.00;;
76379;SDS011;65201;21.060;105.826;2022-11-20T12:17:55;50.50;;;26.55;;
76379;SDS011;65201;21.060;105.826;2022-11-20T12:20:23;52.10;;;26.37;;
76379;SDS011;65201;21.060;105.826;2022-11-20T12:25:21;54.60;;;25.67;;
76379;SDS011;65201;21.060;105.826;2022-11-20T12:27:54;61.08;;;26.33;;
76379;SDS011;65201;21.060;105.826;2022-11-20T12:30:21;57.67;;;25.58;;
76379;SDS011;65201;21.060;105.826;2022-11-20T12:40:27;52.28;;;25.92;;
76379;SDS011;65201;21.060;105.826;2022-11-20T13:06:47;46.35;;;24.15;;
76379;SDS011;65201;21.060;105.826;2022-11-20T13:09:15;49.47;;;24.58;;
76379;SDS011;65201;21.060;105.826;2022-11-20T13:11:47;47.73;;;25.33;;
76379;SDS011;65201;21.060;105.826;2022-11-20T13:14:33;46.63;;;24.23;;
76379;SDS011;65201;21.060;105.826;2022-11-20T13:17:04;46.17;;;23.58;;
76379;SDS011;65201;21.060;105.826;2022-11-20T13:19:31;43.50;;;23.00;;
76379;SDS011;65201;21.060;105.826;2022-11-20T13:21:58;44.22;;;21.92;;
76379;SDS011;65201;21.060;105.826;2022-11-20T13:24:25;40.50;;;22.10;;
76379;SDS011;65201;21.060;105.826;2022-11-20T13:29:19;44.08;;;22.02;;
76379;SDS011;65201;21.060;105.826;2022-11-20T13:31:46;41.90;;;21.77;;
76379;SDS011;65201;21.060;105.826;2022-11-20T13:34:23;43.40;;;21.60;;
76379;SDS011;65201;21.060;105.826;2022-11-20T13:36:53;46.53;;;22.45;;
76379;SDS011;65201;21.060;105.826;2022-11-20T13:39:29;39.43;;;21.00;;
76379;SDS011;65201;21.060;105.826;2022-11-20T13:42:00;39.40;;;20.83;;
76379;SDS011;65201;21.060;105.826;2022-11-20T13:44:29;36.85;;;21.20;;
76379;SDS011;65201;21.060;105.826;2022-11-20T13:46:56;40.83;;;21.00;;
76379;SDS011;65201;21.060;105.826;2022-11-20T13:51:50;36.93;;;20.00;;
76379;SDS011;65201;21.060;105.826;2022-11-20T14:37:24;29.80;;;16.17;;
76379;SDS011;65201;21.060;105.826;2022-11-20T14:39:53;30.13;;;16.63;;
76379;SDS011;65201;21.060;105.826;2022-11-20T14:42:25;29.02;;;15.60;;
76379;SDS011;65201;21.060;105.826;2022-11-20T14:44:52;27.60;;;15.88;;
76379;SDS011;65201;21.060;105.826;2022-11-20T14:47:24;32.10;;;17.07;;
76379;SDS011;65201;21.060;105.826;2022-11-20T14:49:51;27.98;;;15.55;;
76379;SDS011;65201;21.060;105.826;2022-11-20T14:54:45;28.15;;;16.13;;
76379;SDS011;65201;21.060;105.826;2022-11-20T14:57:25;26.83;;;15.88;;
76379;SDS011;65201;21.060;105.826;2022-11-20T15:00:03;28.07;;;16.63;;
76379;SDS011;65201;21.060;105.826;2022-11-20T15:02:30;28.77;;;15.95;;
76379;SDS011;65201;21.060;105.826;2022-11-20T15:11:16;30.00;;;16.95;;
76379;SDS011;65201;21.060;105.826;2022-11-20T15:13:43;30.20;;;17.25;;
76379;SDS011;65201;21.060;105.826;2022-11-20T15:16:14;29.35;;;17.17;;
76379;SDS011;65201;21.060;105.826;2022-11-20T15:18:42;31.42;;;17.60;;
76379;SDS011;65201;21.060;105.826;2022-11-20T15:21:12;28.27;;;16.80;;
76379;SDS011;65201;21.060;105.826;2022-11-20T15:23:39;29.52;;;16.60;;
76379;SDS011;65201;21.060;105.826;2022-11-20T15:26:05;29.13;;;17.25;;
76379;SDS011;65201;21.060;105.826;2022-11-20T15:28:33;29.50;;;17.45;;
76379;SDS011;65201;21.060;105.826;2022-11-20T15:30:59;28.88;;;17.88;;
76379;SDS011;65201;21.060;105.826;2022-11-20T15:33:27;30.00;;;17.40;;
76379;SDS011;65201;21.060;105.826;2022-11-20T15:35:53;29.33;;;17.63;;
76379;SDS011;65201;21.060;105.826;2022-11-20T15:38:19;32.20;;;17.65;;
76379;SDS011;65201;21.060;105.826;2022-11-20T15:40:45;28.88;;;16.63;;
76379;SDS011;65201;21.060;105.826;2022-11-20T15:43:13;31.50;;;17.95;;
76379;SDS011;65201;21.060;105.826;2022-11-20T15:45:50;29.17;;;17.20;;
76379;SDS011;65201;21.060;105.826;2022-11-20T15:48:21;28.58;;;17.33;;
76379;SDS011;65201;21.060;105.826;2022-11-20T15:53:17;28.50;;;17.90;;
76379;SDS011;65201;21.060;105.826;2022-11-20T15:55:43;29.70;;;17.55;;
76379;SDS011;65201;21.060;105.826;2022-11-20T15:58:09;29.90;;;18.17;;
76379;SDS011;65201;21.060;105.826;2022-11-20T16:00:35;30.15;;;17.65;;
76379;SDS011;65201;21.060;105.826;2022-11-20T16:03:02;28.52;;;17.65;;
76379;SDS011;65201;21.060;105.826;2022-11-20T16:05:28;29.75;;;16.92;;
76379;SDS011;65201;21.060;105.826;2022-11-20T16:07:55;28.55;;;17.50;;
76379;SDS011;65201;21.060;105.826;2022-11-20T16:10:22;30.60;;;17.93;;
76379;SDS011;65201;21.060;105.826;2022-11-20T16:12:48;25.38;;;17.05;;
76379;SDS011;65201;21.060;105.826;2022-11-20T16:15:33;28.13;;;17.33;;
76379;SDS011;65201;21.060;105.826;2022-11-20T16:18:13;30.08;;;18.08;;
76379;SDS011;65201;21.060;105.826;2022-11-20T16:20:39;29.65;;;18.88;;
76379;SDS011;65201;21.060;105.826;2022-11-20T16:23:06;34.47;;;19.47;;
76379;SDS011;65201;21.060;105.826;2022-11-20T16:25:32;29.73;;;18.67;;
76379;SDS011;65201;21.060;105.826;2022-11-20T16:27:58;29.98;;;18.92;;
76379;SDS011;65201;21.060;105.826;2022-11-20T16:30:25;29.50;;;18.48;;
76379;SDS011;65201;21.060;105.826;2022-11-20T16:32:51;28.65;;;18.77;;
76379;SDS011;65201;21.060;105.826;2022-11-20T16:35:17;34.77;;;19.83;;
76379;SDS011;65201;21.060;105.826;2022-11-20T16:37:44;29.60;;;18.80;;
76379;SDS011;65201;21.060;105.826;2022-11-20T16:40:10;33.25;;;20.02;;